createdAt,value
2023-02-06T00:03:47.654Z,11.43
2023-02-06T00:08:50.601Z,9.73
2023-02-06T00:13:53.563Z,9.50
2023-02-06T00:18:59.549Z,9.30
2023-02-06T00:24:03.381Z,9.53
2023-02-06T00:29:06.353Z,9.30
2023-02-06T00:34:10.635Z,10.37
2023-02-06T00:39:15.801Z,9.27
2023-02-06T00:44:18.762Z,10.20
2023-02-06T00:49:23.268Z,10.40
2023-02-06T00:54:27.067Z,9.50
2023-02-06T00:59:29.970Z,9.13
2023-02-06T01:04:35.554Z,8.90
2023-02-06T01:09:38.601Z,9.50
2023-02-06T01:14:41.609Z,8.53
2023-02-06T01:19:48.918Z,7.27
2023-02-06T01:24:51.948Z,8.70
2023-02-06T01:29:55.040Z,9.23
2023-02-06T01:34:59.317Z,8.77
2023-02-06T01:40:02.238Z,9.30
2023-02-06T01:45:39.016Z,8.50
2023-02-06T01:50:47.494Z,8.33
2023-02-06T01:55:53.720Z,8.90
2023-02-06T02:00:58.637Z,8.63
2023-02-06T02:06:08.686Z,9.00
2023-02-06T02:11:16.171Z,7.80
2023-02-06T02:16:24.309Z,7.80
2023-02-06T02:21:53.584Z,8.80
2023-02-06T02:27:32.227Z,7.83
2023-02-06T02:32:52.656Z,6.83
2023-02-06T02:38:05.074Z,7.73
2023-02-06T02:43:17.543Z,8.40
2023-02-06T02:48:25.430Z,8.40
2023-02-06T02:53:29.922Z,7.97
2023-02-06T02:58:36.575Z,7.70
2023-02-06T03:03:44.651Z,7.70
2023-02-06T03:08:57.827Z,7.80
2023-02-06T03:14:07.392Z,8.20
2023-02-06T03:19:15.286Z,10.13
2023-02-06T03:24:23.666Z,11.20
2023-02-06T03:29:29.222Z,9.43
2023-02-06T03:34:39.005Z,11.90
2023-02-06T03:39:43.575Z,11.17
2023-02-06T03:44:50.634Z,10.50
2023-02-06T03:49:56.269Z,10.40
2023-02-06T03:55:05.022Z,9.90
2023-02-06T04:00:09.041Z,9.20
2023-02-06T04:05:19.383Z,8.93
2023-02-06T04:10:26.113Z,9.70
2023-02-06T04:15:29.382Z,9.80
2023-02-06T04:20:32.836Z,10.80
2023-02-06T04:25:37.424Z,10.53
2023-02-06T04:30:40.899Z,11.40
2023-02-06T04:35:43.933Z,11.80
2023-02-06T04:40:48.217Z,13.00
2023-02-06T04:45:51.194Z,11.53
2023-02-06T04:50:54.173Z,13.90
2023-02-06T04:56:04.361Z,11.40
2023-02-06T05:01:08.087Z,12.70
2023-02-06T05:06:11.030Z,11.83
2023-02-06T05:11:15.332Z,12.03
2023-02-06T05:16:18.896Z,12.00
2023-02-06T05:21:22.034Z,11.70
2023-02-06T05:26:26.248Z,16.53
2023-02-06T05:31:29.281Z,13.43
2023-02-06T05:36:32.246Z,12.37
2023-02-06T05:41:36.581Z,12.53
2023-02-06T05:46:39.568Z,15.10
2023-02-06T05:51:42.645Z,15.00
2023-02-06T05:56:46.911Z,13.50
2023-02-06T06:01:49.850Z,11.87
2023-02-06T06:06:52.916Z,12.00
2023-02-06T06:11:57.234Z,11.77
2023-02-06T06:17:00.259Z,12.10
2023-02-06T06:22:03.255Z,12.77
2023-02-06T06:27:10.577Z,11.90
2023-02-06T06:32:13.459Z,12.43
2023-02-06T06:37:16.348Z,12.90
2023-02-06T06:42:20.670Z,12.30
2023-02-06T06:47:23.537Z,13.60
2023-02-06T06:52:26.440Z,17.07
2023-02-06T06:57:33.179Z,13.73
2023-02-06T07:02:36.123Z,13.40
2023-02-06T07:07:40.163Z,13.50
2023-02-06T07:12:44.576Z,13.67
2023-02-06T07:17:47.591Z,13.67
2023-02-06T07:22:50.525Z,14.27
2023-02-06T07:27:54.775Z,14.47
2023-02-06T07:32:57.686Z,13.10
2023-02-06T07:38:00.586Z,14.50
2023-02-06T07:43:07.393Z,14.20
2023-02-06T07:48:11.970Z,14.77
2023-02-06T07:53:14.877Z,15.40
2023-02-06T07:58:19.161Z,14.77
2023-02-06T08:03:22.170Z,16.73
2023-02-06T08:08:25.061Z,16.40
2023-02-06T08:13:29.326Z,16.33
2023-02-06T08:18:32.287Z,18.17
2023-02-06T08:23:35.426Z,18.87
2023-02-06T08:28:42.141Z,18.40
2023-02-06T08:33:45.781Z,20.37
2023-02-06T08:38:48.794Z,17.97
2023-02-06T08:43:55.368Z,21.80
2023-02-06T08:48:59.039Z,22.63
2023-02-06T08:54:04.326Z,21.50
2023-02-06T08:59:10.726Z,20.30
2023-02-06T09:04:14.968Z,20.17
2023-02-06T09:09:18.011Z,23.57
2023-02-06T09:14:22.317Z,22.40
2023-02-06T09:19:25.629Z,23.60
2023-02-06T09:24:30.204Z,21.97
2023-02-06T09:29:34.705Z,21.20
2023-02-06T09:34:37.746Z,23.03
2023-02-06T09:39:40.609Z,24.67
2023-02-06T09:44:49.259Z,24.20
2023-02-06T09:49:55.191Z,25.47
2023-02-06T09:55:04.151Z,23.80
2023-02-06T10:00:15.749Z,22.80
2023-02-06T10:05:26.296Z,23.90
2023-02-06T10:10:37.850Z,20.67
2023-02-06T10:15:47.084Z,21.57
2023-02-06T10:20:54.645Z,22.23
2023-02-06T10:26:06.097Z,24.13
2023-02-06T10:31:22.509Z,24.33
2023-02-06T10:36:46.218Z,23.73
2023-02-06T10:41:57.913Z,22.37
2023-02-06T10:47:02.509Z,24.43
2023-02-06T10:52:26.685Z,21.73
2023-02-06T10:57:31.053Z,20.63
2023-02-06T11:02:44.006Z,22.43
2023-02-06T11:07:49.814Z,25.40
2023-02-06T11:13:03.960Z,23.03
2023-02-06T11:18:14.856Z,17.43
2023-02-06T11:23:20.084Z,18.13
2023-02-06T11:28:24.850Z,17.73
2023-02-06T11:33:37.940Z,19.10
2023-02-06T11:38:55.445Z,19.10
2023-02-06T11:44:02.690Z,21.10
2023-02-06T11:49:23.475Z,20.20
2023-02-06T11:54:28.996Z,20.70
2023-02-06T11:59:34.954Z,21.20
2023-02-06T12:04:41.827Z,20.03
2023-02-06T12:09:44.819Z,19.00
2023-02-06T12:14:50.454Z,20.20
2023-02-06T12:20:02.501Z,17.93
2023-02-06T12:25:06.017Z,17.10
2023-02-06T12:30:27.869Z,18.23
2023-02-06T12:35:37.675Z,17.10
2023-02-06T12:40:49.443Z,17.13
2023-02-06T12:46:00.743Z,16.97
2023-02-06T12:51:14.844Z,17.00
2023-02-06T12:56:26.261Z,14.50
2023-02-06T13:01:48.911Z,12.97
2023-02-06T13:06:55.930Z,13.30
2023-02-06T13:12:09.516Z,16.43
2023-02-06T13:17:19.053Z,14.67
2023-02-06T13:22:35.332Z,16.77
2023-02-06T13:27:40.256Z,15.90
2023-02-06T13:32:46.334Z,18.00
2023-02-06T13:38:10.538Z,17.07
2023-02-06T13:43:19.685Z,18.17
2023-02-06T13:48:52.938Z,16.27
2023-02-06T13:54:20.722Z,17.20
2023-02-06T13:59:29.224Z,14.20
2023-02-06T14:04:33.392Z,14.73
2023-02-06T14:10:13.276Z,15.60
2023-02-06T14:15:26.595Z,13.50
2023-02-06T14:20:39.169Z,12.70
2023-02-06T14:25:57.121Z,13.83
2023-02-06T14:31:12.583Z,13.90
2023-02-06T14:36:35.350Z,14.60
2023-02-06T14:41:40.431Z,13.17
2023-02-06T14:46:43.413Z,11.53
2023-02-06T14:51:51.620Z,12.00
2023-02-06T14:56:59.362Z,9.80
2023-02-06T15:02:14.907Z,9.37
2023-02-06T15:07:24.715Z,10.00
2023-02-06T15:12:32.159Z,10.43
2023-02-06T15:17:35.136Z,12.43
2023-02-06T15:22:38.126Z,14.50
2023-02-06T15:27:42.540Z,13.47
2023-02-06T15:32:49.483Z,12.83
2023-02-06T15:37:53.886Z,13.73
2023-02-06T15:42:58.655Z,17.00
2023-02-06T15:48:10.006Z,15.13
2023-02-06T15:53:20.669Z,13.50
2023-02-06T15:58:26.170Z,11.00
2023-02-06T16:03:31.419Z,14.03
2023-02-06T16:08:38.145Z,14.87
2023-02-06T16:13:46.581Z,13.50
2023-02-06T16:18:52.267Z,13.60
2023-02-06T16:24:08.046Z,14.60
2023-02-06T16:29:25.634Z,16.63
2023-02-06T16:34:40.940Z,16.23
2023-02-06T16:39:44.819Z,15.40
2023-02-06T16:44:51.324Z,17.37
2023-02-06T16:49:54.207Z,15.90
2023-02-06T16:54:58.949Z,15.17
2023-02-06T17:00:05.127Z,18.00
2023-02-06T17:05:08.680Z,18.93
2023-02-06T17:10:14.748Z,26.70
2023-02-06T17:15:20.314Z,21.93
2023-02-06T17:20:30.169Z,19.17
2023-02-06T17:25:33.496Z,20.17
2023-02-06T17:30:38.634Z,18.73
2023-02-06T17:35:41.751Z,19.77
2023-02-06T17:40:44.854Z,20.77
2023-02-06T17:45:49.251Z,16.63
2023-02-06T17:50:52.156Z,18.10
2023-02-06T17:55:55.096Z,16.00
2023-02-06T18:00:59.429Z,15.07
2023-02-06T18:06:03.349Z,17.00
2023-02-06T18:11:11.515Z,15.03
2023-02-06T18:16:17.400Z,17.37
2023-02-06T18:21:21.910Z,19.10
2023-02-06T18:26:25.259Z,20.27
2023-02-06T18:31:33.178Z,26.47
2023-02-06T18:36:38.026Z,20.83
2023-02-06T18:41:58.629Z,43.23
2023-02-06T18:47:02.931Z,30.60
2023-02-06T18:52:07.033Z,21.87
2023-02-06T18:57:09.981Z,22.77
2023-02-06T19:02:14.383Z,18.90
2023-02-06T19:07:17.359Z,21.27
2023-02-06T19:12:20.295Z,23.67
2023-02-06T19:17:25.903Z,20.40
2023-02-06T19:22:28.851Z,23.43
2023-02-06T19:27:32.127Z,23.70
2023-02-06T19:32:36.551Z,23.67
2023-02-06T19:37:40.149Z,26.97
2023-02-06T19:42:43.127Z,24.63
2023-02-06T19:47:47.401Z,28.73
2023-02-06T19:52:50.476Z,32.60
2023-02-06T19:57:53.347Z,26.13
2023-02-06T20:02:57.576Z,26.93
2023-02-06T20:08:00.869Z,28.03
2023-02-06T20:13:03.811Z,26.70
2023-02-06T20:18:08.131Z,25.30
2023-02-06T20:23:11.064Z,26.80
2023-02-06T20:28:14.203Z,27.23
2023-02-06T20:33:18.481Z,26.30
2023-02-06T20:38:21.430Z,29.50
2023-02-06T20:43:24.341Z,27.13
2023-02-06T20:48:28.637Z,30.80
2023-02-06T20:53:31.919Z,31.17
2023-02-06T20:58:34.867Z,30.80
2023-02-06T21:03:39.702Z,31.20
2023-02-06T21:08:43.359Z,29.00
2023-02-06T21:13:46.272Z,27.60
2023-02-06T21:18:50.582Z,26.10
2023-02-06T21:23:55.760Z,30.03
2023-02-06T21:29:00.230Z,29.97
2023-02-06T21:34:08.268Z,29.33
2023-02-06T21:39:15.434Z,29.10
2023-02-06T21:44:18.680Z,28.73
2023-02-06T21:49:23.593Z,32.13
2023-02-06T21:54:26.847Z,29.33
2023-02-06T21:59:32.680Z,30.60
2023-02-06T22:04:36.982Z,32.47
2023-02-06T22:09:40.163Z,30.73
2023-02-06T22:14:43.073Z,30.73
2023-02-06T22:19:48.784Z,32.33
2023-02-06T22:24:51.732Z,27.33
2023-02-06T22:29:54.839Z,32.93
2023-02-06T22:35:01.273Z,29.23
2023-02-06T22:40:04.376Z,27.83
2023-02-06T22:45:08.486Z,26.47
2023-02-06T22:50:12.741Z,26.03
2023-02-06T22:55:15.766Z,24.00
2023-02-06T23:00:18.633Z,24.30
2023-02-06T23:05:22.893Z,25.80
2023-02-06T23:10:25.785Z,23.80
2023-02-06T23:15:28.652Z,23.27
2023-02-06T23:20:32.859Z,21.83
2023-02-06T23:25:36.220Z,24.20
2023-02-06T23:30:39.481Z,22.07
2023-02-06T23:35:44.635Z,20.90
2023-02-06T23:40:48.719Z,19.40
2023-02-06T23:45:51.652Z,20.13
2023-02-06T23:50:55.932Z,19.40
2023-02-06T23:55:59.089Z,18.83
